Airfield :
LOGIN :

Register | Disclaimer

   EN    FR    IT 

 










Legend :    VFR   Marginal VFR   IFR   Intensive IFR   Very Intensive IFR
Visi :
Ceiling :
>= 8 km
>= 3000ft
5 to 8 km
1000 to 3000 ft
1500m to 5 km
500 to 1000 ft
800 to 1500m
200 to 500 ft
< 800m
< 200 ft
Symbols :   Thunderstorms  Fog  Heavy snow  Heavy precipitations  Wind > 20 kt
SIGMETs :     Misc.  Thunderstorms  Icing  Turbulence  Mountain Waves  Volcanic Ashes







- Airport Elevation : 203 ft
- IATA code : XMJ
- Download approach charts


LFBM - Mont-De-Marsan

CURRENT METAR :
  • 231300Z AUTO 26006KT 200V290 CAVOK 24/13 Q1016 NOSIG

EXPIRED METARs :
  • 231230Z AUTO 25003KT 160V320 CAVOK 25/11 Q1016 NOSIG
  • 231200Z AUTO 25003KT 210V010 CAVOK 24/10 Q1017 NOSIG
  • 231130Z AUTO VRB02KT CAVOK 25/10 Q1017 NOSIG
  • 231100Z AUTO 02003KT 310V080 CAVOK 25/10 Q1017 NOSIG
  • 231030Z AUTO 02003KT 310V070 CAVOK 25/09 Q1017 NOSIG

TAF TAF LFBM
Valid from the 23 at 09:00 until the 24 at 09:00 UTC


230800Z 2309/2409 31003KT CAVOK
BECMG 2318/2320 RA BKN004 BKN020 OVC030
No reported NOTAMs for that airfield.



MET'MAP, your aeronautical weather chart ! - Copyright ORBIFLY December 2007 - Disclaimer

ORBIFLY MET'MAP TEAM :

Programming & Development : Alexandra Zaïnal
Concept & Development : Baudouin d'Aumeries
Co-Development & Prog : Marc-Olivier Méhu
Technical & hardware support : Manuel Goepfert

Contact : metmap@orbifly.com




SOURCES & CREDITS :

   NOAA